sensor_id;sensor_type;location;lat;lon;timestamp;P1;durP1;ratioP1;P2;durP2;ratioP2
20336;SDS011;10326;53.660;10.200;2023-05-09T00:00:56;2.60;;;2.40;;
20336;SDS011;10326;53.660;10.200;2023-05-09T00:03:31;3.38;;;2.30;;
20336;SDS011;10326;53.660;10.200;2023-05-09T00:05:58;2.50;;;2.30;;
20336;SDS011;10326;53.660;10.200;2023-05-09T00:08:26;3.58;;;2.40;;
20336;SDS011;10326;53.660;10.200;2023-05-09T00:10:53;2.80;;;2.30;;
20336;SDS011;10326;53.660;10.200;2023-05-09T00:13:20;3.05;;;2.72;;
20336;SDS011;10326;53.660;10.200;2023-05-09T00:15:48;2.38;;;2.17;;
20336;SDS011;10326;53.660;10.200;2023-05-09T00:18:19;2.30;;;2.10;;
20336;SDS011;10326;53.660;10.200;2023-05-09T00:20:47;3.03;;;2.42;;
20336;SDS011;10326;53.660;10.200;2023-05-09T00:23:14;2.60;;;2.40;;
20336;SDS011;10326;53.660;10.200;2023-05-09T00:25:42;2.50;;;2.30;;
20336;SDS011;10326;53.660;10.200;2023-05-09T00:28:09;2.58;;;2.38;;
20336;SDS011;10326;53.660;10.200;2023-05-09T00:30:36;3.10;;;2.75;;
20336;SDS011;10326;53.660;10.200;2023-05-09T00:33:03;2.50;;;2.30;;
20336;SDS011;10326;53.660;10.200;2023-05-09T00:35:31;3.33;;;2.60;;
20336;SDS011;10326;53.660;10.200;2023-05-09T00:37:59;2.97;;;2.67;;
20336;SDS011;10326;53.660;10.200;2023-05-09T00:40:26;3.13;;;2.70;;
20336;SDS011;10326;53.660;10.200;2023-05-09T00:42:53;2.83;;;2.50;;
20336;SDS011;10326;53.660;10.200;2023-05-09T00:45:22;2.97;;;2.30;;
20336;SDS011;10326;53.660;10.200;2023-05-09T00:47:49;3.65;;;2.80;;
20336;SDS011;10326;53.660;10.200;2023-05-09T00:50:17;3.63;;;2.58;;
20336;SDS011;10326;53.660;10.200;2023-05-09T00:52:46;2.63;;;2.42;;
20336;SDS011;10326;53.660;10.200;2023-05-09T00:55:13;3.38;;;2.53;;
20336;SDS011;10326;53.660;10.200;2023-05-09T00:57:41;3.30;;;2.40;;
20336;SDS011;10326;53.660;10.200;2023-05-09T01:00:08;4.20;;;2.78;;
20336;SDS011;10326;53.660;10.200;2023-05-09T01:02:38;2.60;;;2.40;;
20336;SDS011;10326;53.660;10.200;2023-05-09T01:05:06;5.22;;;2.60;;
20336;SDS011;10326;53.660;10.200;2023-05-09T01:07:34;3.05;;;2.75;;
20336;SDS011;10326;53.660;10.200;2023-05-09T01:10:12;2.90;;;2.60;;
20336;SDS011;10326;53.660;10.200;2023-05-09T01:12:48;4.20;;;2.67;;
20336;SDS011;10326;53.660;10.200;2023-05-09T01:15:26;2.80;;;2.60;;
20336;SDS011;10326;53.660;10.200;2023-05-09T01:17:57;3.75;;;2.65;;
20336;SDS011;10326;53.660;10.200;2023-05-09T01:20:31;2.97;;;2.67;;
20336;SDS011;10326;53.660;10.200;2023-05-09T01:23:05;2.58;;;2.38;;
20336;SDS011;10326;53.660;10.200;2023-05-09T01:26:03;2.75;;;2.47;;
20336;SDS011;10326;53.660;10.200;2023-05-09T01:28:35;3.20;;;2.90;;
20336;SDS011;10326;53.660;10.200;2023-05-09T01:31:27;3.13;;;2.85;;
20336;SDS011;10326;53.660;10.200;2023-05-09T01:33:55;3.20;;;2.90;;
20336;SDS011;10326;53.660;10.200;2023-05-09T01:36:26;3.15;;;2.47;;
20336;SDS011;10326;53.660;10.200;2023-05-09T01:38:56;3.00;;;2.80;;
20336;SDS011;10326;53.660;10.200;2023-05-09T01:41:25;3.28;;;2.95;;
20336;SDS011;10326;53.660;10.200;2023-05-09T01:43:57;3.25;;;2.95;;
20336;SDS011;10326;53.660;10.200;2023-05-09T01:46:28;2.72;;;2.53;;
20336;SDS011;10326;53.660;10.200;2023-05-09T01:48:56;3.05;;;2.78;;
20336;SDS011;10326;53.660;10.200;2023-05-09T01:51:23;2.83;;;2.63;;
20336;SDS011;10326;53.660;10.200;2023-05-09T01:53:52;3.33;;;2.97;;
20336;SDS011;10326;53.660;10.200;2023-05-09T01:56:21;4.20;;;2.85;;
20336;SDS011;10326;53.660;10.200;2023-05-09T01:58:50;3.53;;;2.70;;
20336;SDS011;10326;53.660;10.200;2023-05-09T02:01:18;3.53;;;3.13;;
20336;SDS011;10326;53.660;10.200;2023-05-09T02:03:47;4.32;;;3.25;;
20336;SDS011;10326;53.660;10.200;2023-05-09T02:06:17;3.22;;;2.97;;
20336;SDS011;10326;53.660;10.200;2023-05-09T02:08:47;3.30;;;3.00;;
20336;SDS011;10326;53.660;10.200;2023-05-09T02:11:16;3.70;;;3.40;;
20336;SDS011;10326;53.660;10.200;2023-05-09T02:13:43;3.50;;;3.20;;
20336;SDS011;10326;53.660;10.200;2023-05-09T02:16:10;3.30;;;3.00;;
20336;SDS011;10326;53.660;10.200;2023-05-09T02:18:37;3.40;;;3.10;;
20336;SDS011;10326;53.660;10.200;2023-05-09T02:21:07;3.20;;;2.78;;
20336;SDS011;10326;53.660;10.200;2023-05-09T02:23:34;7.32;;;3.00;;
20336;SDS011;10326;53.660;10.200;2023-05-09T02:26:01;3.47;;;3.15;;
20336;SDS011;10326;53.660;10.200;2023-05-09T02:28:28;3.40;;;3.10;;
20336;SDS011;10326;53.660;10.200;2023-05-09T02:30:56;3.50;;;3.20;;
20336;SDS011;10326;53.660;10.200;2023-05-09T02:33:25;3.65;;;3.30;;
20336;SDS011;10326;53.660;10.200;2023-05-09T02:35:53;3.58;;;3.28;;
20336;SDS011;10326;53.660;10.200;2023-05-09T02:38:23;3.58;;;3.28;;
20336;SDS011;10326;53.660;10.200;2023-05-09T02:40:51;3.40;;;3.10;;
20336;SDS011;10326;53.660;10.200;2023-05-09T02:43:19;3.92;;;3.55;;
20336;SDS011;10326;53.660;10.200;2023-05-09T02:45:47;3.28;;;2.95;;
20336;SDS011;10326;53.660;10.200;2023-05-09T02:48:14;3.60;;;3.35;;
20336;SDS011;10326;53.660;10.200;2023-05-09T02:50:41;3.88;;;3.50;;
20336;SDS011;10326;53.660;10.200;2023-05-09T02:53:10;3.85;;;3.42;;
20336;SDS011;10326;53.660;10.200;2023-05-09T02:55:40;4.40;;;3.60;;
20336;SDS011;10326;53.660;10.200;2023-05-09T02:58:07;3.90;;;3.60;;
20336;SDS011;10326;53.660;10.200;2023-05-09T03:00:34;4.03;;;3.63;;
20336;SDS011;10326;53.660;10.200;2023-05-09T03:03:03;3.95;;;3.60;;
20336;SDS011;10326;53.660;10.200;2023-05-09T03:05:30;3.90;;;3.60;;
20336;SDS011;10326;53.660;10.200;2023-05-09T03:07:57;3.65;;;3.35;;
20336;SDS011;10326;53.660;10.200;2023-05-09T03:10:25;4.47;;;3.92;;
20336;SDS011;10326;53.660;10.200;2023-05-09T03:12:53;3.95;;;3.45;;
20336;SDS011;10326;53.660;10.200;2023-05-09T03:15:20;3.75;;;3.45;;
20336;SDS011;10326;53.660;10.200;2023-05-09T03:17:48;3.83;;;3.42;;
20336;SDS011;10326;53.660;10.200;2023-05-09T03:20:15;3.90;;;3.50;;
20336;SDS011;10326;53.660;10.200;2023-05-09T03:22:42;3.88;;;3.58;;
20336;SDS011;10326;53.660;10.200;2023-05-09T03:25:10;4.10;;;3.25;;
20336;SDS011;10326;53.660;10.200;2023-05-09T03:27:37;4.20;;;3.80;;
20336;SDS011;10326;53.660;10.200;2023-05-09T03:30:10;4.00;;;3.67;;
20336;SDS011;10326;53.660;10.200;2023-05-09T03:32:39;4.15;;;3.40;;
20336;SDS011;10326;53.660;10.200;2023-05-09T03:35:07;4.30;;;3.88;;
20336;SDS011;10326;53.660;10.200;2023-05-09T03:37:34;4.15;;;3.70;;
20336;SDS011;10326;53.660;10.200;2023-05-09T03:40:01;4.25;;;3.85;;
20336;SDS011;10326;53.660;10.200;2023-05-09T03:42:32;4.35;;;3.83;;
20336;SDS011;10326;53.660;10.200;2023-05-09T03:45:01;4.88;;;4.40;;
20336;SDS011;10326;53.660;10.200;2023-05-09T03:47:30;4.32;;;3.90;;
20336;SDS011;10326;53.660;10.200;2023-05-09T03:49:57;4.30;;;3.97;;
20336;SDS011;10326;53.660;10.200;2023-05-09T03:52:24;4.20;;;3.90;;
20336;SDS011;10326;53.660;10.200;2023-05-09T03:54:51;3.58;;;3.28;;
20336;SDS011;10326;53.660;10.200;2023-05-09T03:57:19;4.70;;;4.18;;
20336;SDS011;10326;53.660;10.200;2023-05-09T03:59:48;4.32;;;4.03;;
20336;SDS011;10326;53.660;10.200;2023-05-09T04:02:16;4.20;;;3.75;;
20336;SDS011;10326;53.660;10.200;2023-05-09T04:04:51;4.10;;;3.72;;
20336;SDS011;10326;53.660;10.200;2023-05-09T04:07:20;4.80;;;4.25;;
20336;SDS011;10326;53.660;10.200;2023-05-09T04:09:47;4.10;;;3.78;;
20336;SDS011;10326;53.660;10.200;2023-05-09T04:12:15;4.55;;;3.80;;
20336;SDS011;10326;53.660;10.200;2023-05-09T04:14:42;4.82;;;4.43;;
20336;SDS011;10326;53.660;10.200;2023-05-09T04:17:10;4.38;;;3.90;;
20336;SDS011;10326;53.660;10.200;2023-05-09T04:19:37;4.93;;;4.45;;
20336;SDS011;10326;53.660;10.200;2023-05-09T04:22:06;4.18;;;3.88;;
20336;SDS011;10326;53.660;10.200;2023-05-09T04:24:33;4.38;;;4.03;;
20336;SDS011;10326;53.660;10.200;2023-05-09T04:27:00;5.22;;;4.22;;
20336;SDS011;10326;53.660;10.200;2023-05-09T04:29:27;4.78;;;4.38;;
20336;SDS011;10326;53.660;10.200;2023-05-09T04:31:55;4.30;;;4.00;;
20336;SDS011;10326;53.660;10.200;2023-05-09T04:34:24;4.45;;;4.05;;
20336;SDS011;10326;53.660;10.200;2023-05-09T04:36:53;5.00;;;4.55;;
20336;SDS011;10326;53.660;10.200;2023-05-09T04:39:22;4.38;;;3.97;;
20336;SDS011;10326;53.660;10.200;2023-05-09T04:42:00;5.25;;;4.18;;
20336;SDS011;10326;53.660;10.200;2023-05-09T04:44:28;4.85;;;4.50;;
20336;SDS011;10326;53.660;10.200;2023-05-09T04:46:56;5.30;;;4.80;;
20336;SDS011;10326;53.660;10.200;2023-05-09T04:49:23;4.13;;;3.78;;
20336;SDS011;10326;53.660;10.200;2023-05-09T04:51:52;4.93;;;4.53;;
20336;SDS011;10326;53.660;10.200;2023-05-09T04:54:19;4.97;;;4.57;;
20336;SDS011;10326;53.660;10.200;2023-05-09T04:56:51;5.10;;;4.60;;
20336;SDS011;10326;53.660;10.200;2023-05-09T04:59:18;4.30;;;3.90;;
20336;SDS011;10326;53.660;10.200;2023-05-09T05:01:45;4.30;;;3.90;;
20336;SDS011;10326;53.660;10.200;2023-05-09T05:04:12;4.75;;;4.35;;
20336;SDS011;10326;53.660;10.200;2023-05-09T05:06:40;3.95;;;3.65;;
20336;SDS011;10326;53.660;10.200;2023-05-09T05:09:07;4.45;;;4.05;;
20336;SDS011;10326;53.660;10.200;2023-05-09T05:11:35;5.03;;;4.50;;
20336;SDS011;10326;53.660;10.200;2023-05-09T05:14:04;6.00;;;4.53;;
20336;SDS011;10326;53.660;10.200;2023-05-09T05:16:32;5.30;;;4.10;;
20336;SDS011;10326;53.660;10.200;2023-05-09T05:18:59;4.72;;;4.20;;
20336;SDS011;10326;53.660;10.200;2023-05-09T05:21:29;5.07;;;4.60;;
20336;SDS011;10326;53.660;10.200;2023-05-09T05:23:57;5.97;;;4.40;;
20336;SDS011;10326;53.660;10.200;2023-05-09T05:26:24;4.15;;;3.85;;
20336;SDS011;10326;53.660;10.200;2023-05-09T05:28:52;5.10;;;4.10;;
20336;SDS011;10326;53.660;10.200;2023-05-09T05:31:22;4.72;;;4.32;;
20336;SDS011;10326;53.660;10.200;2023-05-09T05:33:49;4.72;;;4.22;;
20336;SDS011;10326;53.660;10.200;2023-05-09T05:36:16;5.60;;;4.32;;
20336;SDS011;10326;53.660;10.200;2023-05-09T05:38:43;4.82;;;4.43;;
20336;SDS011;10326;53.660;10.200;2023-05-09T05:41:10;4.88;;;4.35;;
20336;SDS011;10326;53.660;10.200;2023-05-09T05:43:40;4.80;;;4.30;;
20336;SDS011;10326;53.660;10.200;2023-05-09T05:46:07;5.00;;;4.50;;
20336;SDS011;10326;53.660;10.200;2023-05-09T05:48:36;4.50;;;4.03;;
20336;SDS011;10326;53.660;10.200;2023-05-09T05:51:03;4.72;;;4.32;;
20336;SDS011;10326;53.660;10.200;2023-05-09T05:53:31;4.57;;;4.07;;
20336;SDS011;10326;53.660;10.200;2023-05-09T05:55:58;5.13;;;4.63;;
20336;SDS011;10326;53.660;10.200;2023-05-09T05:58:25;4.47;;;4.07;;
20336;SDS011;10326;53.660;10.200;2023-05-09T06:00:52;5.05;;;4.55;;
20336;SDS011;10326;53.660;10.200;2023-05-09T06:03:20;4.53;;;4.13;;
20336;SDS011;10326;53.660;10.200;2023-05-09T06:05:56;7.18;;;4.10;;
20336;SDS011;10326;53.660;10.200;2023-05-09T06:08:24;5.00;;;4.50;;
20336;SDS011;10326;53.660;10.200;2023-05-09T06:10:51;4.22;;;3.92;;
20336;SDS011;10326;53.660;10.200;2023-05-09T06:13:18;4.60;;;4.20;;
20336;SDS011;10326;53.660;10.200;2023-05-09T06:15:54;5.15;;;4.65;;
20336;SDS011;10326;53.660;10.200;2023-05-09T06:18:22;4.65;;;4.28;;
20336;SDS011;10326;53.660;10.200;2023-05-09T06:20:49;4.35;;;3.95;;
20336;SDS011;10326;53.660;10.200;2023-05-09T06:23:17;5.10;;;4.03;;
20336;SDS011;10326;53.660;10.200;2023-05-09T06:25:46;4.22;;;3.83;;
20336;SDS011;10326;53.660;10.200;2023-05-09T06:28:14;4.97;;;3.97;;
20336;SDS011;10326;53.660;10.200;2023-05-09T06:30:41;4.50;;;4.10;;
20336;SDS011;10326;53.660;10.200;2023-05-09T06:33:08;6.45;;;4.30;;
20336;SDS011;10326;53.660;10.200;2023-05-09T06:35:35;4.97;;;4.00;;
20336;SDS011;10326;53.660;10.200;2023-05-09T06:38:02;4.57;;;3.92;;
20336;SDS011;10326;53.660;10.200;2023-05-09T06:40:30;4.10;;;3.67;;
20336;SDS011;10326;53.660;10.200;2023-05-09T06:42:57;4.85;;;4.35;;
20336;SDS011;10326;53.660;10.200;2023-05-09T06:45:24;4.22;;;3.90;;
20336;SDS011;10326;53.660;10.200;2023-05-09T06:47:52;4.50;;;4.10;;
20336;SDS011;10326;53.660;10.200;2023-05-09T06:50:19;4.53;;;4.13;;
20336;SDS011;10326;53.660;10.200;2023-05-09T06:52:46;4.53;;;4.15;;
20336;SDS011;10326;53.660;10.200;2023-05-09T06:55:13;4.38;;;4.00;;
20336;SDS011;10326;53.660;10.200;2023-05-09T06:57:41;4.28;;;3.88;;
20336;SDS011;10326;53.660;10.200;2023-05-09T07:00:09;5.07;;;4.10;;
20336;SDS011;10326;53.660;10.200;2023-05-09T07:02:37;4.20;;;3.90;;
20336;SDS011;10326;53.660;10.200;2023-05-09T07:05:06;4.38;;;3.97;;
20336;SDS011;10326;53.660;10.200;2023-05-09T07:07:34;5.30;;;3.92;;
20336;SDS011;10326;53.660;10.200;2023-05-09T07:10:01;4.20;;;3.80;;
20336;SDS011;10326;53.660;10.200;2023-05-09T07:12:29;4.28;;;3.78;;
20336;SDS011;10326;53.660;10.200;2023-05-09T07:14:58;4.30;;;3.90;;
20336;SDS011;10326;53.660;10.200;2023-05-09T07:17:25;5.32;;;4.32;;
20336;SDS011;10326;53.660;10.200;2023-05-09T07:19:54;5.05;;;4.10;;
20336;SDS011;10326;53.660;10.200;2023-05-09T07:22:21;4.07;;;3.60;;
20336;SDS011;10326;53.660;10.200;2023-05-09T07:24:48;4.35;;;3.92;;
20336;SDS011;10326;53.660;10.200;2023-05-09T07:27:15;4.55;;;4.15;;
20336;SDS011;10326;53.660;10.200;2023-05-09T07:29:42;4.85;;;3.80;;
20336;SDS011;10326;53.660;10.200;2023-05-09T07:32:11;4.82;;;4.13;;
20336;SDS011;10326;53.660;10.200;2023-05-09T07:34:38;4.38;;;4.03;;
20336;SDS011;10326;53.660;10.200;2023-05-09T07:37:05;4.20;;;3.90;;
20336;SDS011;10326;53.660;10.200;2023-05-09T07:39:32;7.72;;;4.32;;
20336;SDS011;10326;53.660;10.200;2023-05-09T07:41:59;6.15;;;4.00;;
20336;SDS011;10326;53.660;10.200;2023-05-09T07:44:26;4.30;;;3.60;;
20336;SDS011;10326;53.660;10.200;2023-05-09T07:46:53;4.47;;;4.07;;
20336;SDS011;10326;53.660;10.200;2023-05-09T07:49:24;4.72;;;4.32;;
20336;SDS011;10326;53.660;10.200;2023-05-09T07:51:51;6.22;;;4.18;;
20336;SDS011;10326;53.660;10.200;2023-05-09T07:54:18;4.55;;;3.85;;
20336;SDS011;10326;53.660;10.200;2023-05-09T07:56:45;4.90;;;3.95;;
20336;SDS011;10326;53.660;10.200;2023-05-09T07:59:12;4.40;;;4.00;;
20336;SDS011;10326;53.660;10.200;2023-05-09T08:01:39;5.10;;;4.10;;
20336;SDS011;10326;53.660;10.200;2023-05-09T08:04:06;4.22;;;3.80;;
20336;SDS011;10326;53.660;10.200;2023-05-09T08:06:35;4.85;;;4.20;;
20336;SDS011;10326;53.660;10.200;2023-05-09T08:09:02;4.88;;;3.95;;
20336;SDS011;10326;53.660;10.200;2023-05-09T08:11:31;4.68;;;3.33;;
20336;SDS011;10326;53.660;10.200;2023-05-09T08:13:58;3.95;;;3.55;;
20336;SDS011;10326;53.660;10.200;2023-05-09T08:16:25;4.15;;;3.80;;
20336;SDS011;10326;53.660;10.200;2023-05-09T08:18:53;4.20;;;3.78;;
20336;SDS011;10326;53.660;10.200;2023-05-09T08:21:20;4.85;;;3.83;;
20336;SDS011;10326;53.660;10.200;2023-05-09T08:23:49;4.13;;;3.67;;
20336;SDS011;10326;53.660;10.200;2023-05-09T08:26:16;4.00;;;3.67;;
20336;SDS011;10326;53.660;10.200;2023-05-09T08:28:44;3.90;;;3.60;;
20336;SDS011;10326;53.660;10.200;2023-05-09T08:31:11;3.63;;;3.33;;
20336;SDS011;10326;53.660;10.200;2023-05-09T08:33:38;3.90;;;3.60;;
20336;SDS011;10326;53.660;10.200;2023-05-09T08:36:05;3.40;;;3.00;;
20336;SDS011;10326;53.660;10.200;2023-05-09T08:38:32;4.13;;;3.47;;
20336;SDS011;10326;53.660;10.200;2023-05-09T08:41:01;3.72;;;3.42;;
20336;SDS011;10326;53.660;10.200;2023-05-09T08:43:29;3.88;;;3.08;;
20336;SDS011;10326;53.660;10.200;2023-05-09T08:45:59;3.75;;;3.30;;
20336;SDS011;10326;53.660;10.200;2023-05-09T08:48:32;3.60;;;3.30;;
20336;SDS011;10326;53.660;10.200;2023-05-09T08:51:02;4.05;;;3.33;;
20336;SDS011;10326;53.660;10.200;2023-05-09T08:53:30;3.97;;;3.30;;
20336;SDS011;10326;53.660;10.200;2023-05-09T08:55:57;4.47;;;3.25;;
20336;SDS011;10326;53.660;10.200;2023-05-09T08:58:26;5.28;;;3.10;;
20336;SDS011;10326;53.660;10.200;2023-05-09T09:00:54;4.13;;;3.50;;
20336;SDS011;10326;53.660;10.200;2023-05-09T09:03:22;3.53;;;3.22;;
20336;SDS011;10326;53.660;10.200;2023-05-09T09:05:49;3.33;;;3.03;;
20336;SDS011;10326;53.660;10.200;2023-05-09T09:08:17;3.58;;;3.10;;
20336;SDS011;10326;53.660;10.200;2023-05-09T09:10:45;4.90;;;3.17;;
20336;SDS011;10326;53.660;10.200;2023-05-09T09:13:13;3.67;;;3.15;;
20336;SDS011;10326;53.660;10.200;2023-05-09T09:15:44;3.70;;;3.40;;
20336;SDS011;10326;53.660;10.200;2023-05-09T09:18:15;3.50;;;3.20;;
20336;SDS011;10326;53.660;10.200;2023-05-09T09:20:48;4.38;;;3.00;;
20336;SDS011;10326;53.660;10.200;2023-05-09T09:23:23;3.75;;;3.30;;
20336;SDS011;10326;53.660;10.200;2023-05-09T09:25:55;5.70;;;2.97;;
20336;SDS011;10326;53.660;10.200;2023-05-09T09:28:27;3.22;;;2.92;;
20336;SDS011;10326;53.660;10.200;2023-05-09T09:30:55;5.53;;;3.50;;
20336;SDS011;10326;53.660;10.200;2023-05-09T09:33:24;3.22;;;2.80;;
20336;SDS011;10326;53.660;10.200;2023-05-09T09:35:53;3.05;;;2.85;;
20336;SDS011;10326;53.660;10.200;2023-05-09T09:38:24;3.67;;;2.92;;
20336;SDS011;10326;53.660;10.200;2023-05-09T09:40:52;3.25;;;2.95;;
20336;SDS011;10326;53.660;10.200;2023-05-09T09:43:25;3.20;;;2.90;;
20336;SDS011;10326;53.660;10.200;2023-05-09T09:45:53;5.15;;;2.88;;
20336;SDS011;10326;53.660;10.200;2023-05-09T09:48:24;2.97;;;2.75;;
20336;SDS011;10326;53.660;10.200;2023-05-09T09:50:52;3.15;;;2.92;;
20336;SDS011;10326;53.660;10.200;2023-05-09T09:53:21;4.45;;;2.88;;
20336;SDS011;10326;53.660;10.200;2023-05-09T09:55:48;3.97;;;2.92;;
20336;SDS011;10326;53.660;10.200;2023-05-09T09:58:16;2.95;;;2.72;;
20336;SDS011;10326;53.660;10.200;2023-05-09T10:00:46;2.97;;;2.78;;
20336;SDS011;10326;53.660;10.200;2023-05-09T10:03:14;2.67;;;2.47;;
20336;SDS011;10326;53.660;10.200;2023-05-09T10:05:43;3.95;;;2.92;;
20336;SDS011;10326;53.660;10.200;2023-05-09T10:08:10;3.78;;;2.67;;
20336;SDS011;10326;53.660;10.200;2023-05-09T10:10:38;3.40;;;3.05;;
20336;SDS011;10326;53.660;10.200;2023-05-09T10:13:06;2.85;;;2.50;;
20336;SDS011;10326;53.660;10.200;2023-05-09T10:15:38;2.90;;;2.70;;
20336;SDS011;10326;53.660;10.200;2023-05-09T10:18:27;2.78;;;2.40;;
20336;SDS011;10326;53.660;10.200;2023-05-09T10:20:57;3.50;;;2.67;;
20336;SDS011;10326;53.660;10.200;2023-05-09T10:23:28;3.00;;;2.80;;
20336;SDS011;10326;53.660;10.200;2023-05-09T10:26:03;3.70;;;2.78;;
20336;SDS011;10326;53.660;10.200;2023-05-09T10:28:37;3.42;;;2.88;;
20336;SDS011;10326;53.660;10.200;2023-05-09T10:31:08;2.85;;;2.65;;
20336;SDS011;10326;53.660;10.200;2023-05-09T10:33:42;3.13;;;2.70;;
20336;SDS011;10326;53.660;10.200;2023-05-09T10:36:16;2.90;;;2.63;;
20336;SDS011;10326;53.660;10.200;2023-05-09T10:38:45;4.28;;;2.50;;
20336;SDS011;10326;53.660;10.200;2023-05-09T10:41:14;3.08;;;2.60;;
20336;SDS011;10326;53.660;10.200;2023-05-09T10:43:43;3.92;;;2.70;;
20336;SDS011;10326;53.660;10.200;2023-05-09T10:46:11;3.80;;;2.70;;
20336;SDS011;10326;53.660;10.200;2023-05-09T10:48:39;3.30;;;2.85;;
20336;SDS011;10326;53.660;10.200;2023-05-09T10:51:08;2.80;;;2.60;;
20336;SDS011;10326;53.660;10.200;2023-05-09T10:53:40;2.90;;;2.70;;
20336;SDS011;10326;53.660;10.200;2023-05-09T10:56:21;2.50;;;2.30;;
20336;SDS011;10326;53.660;10.200;2023-05-09T10:58:50;4.60;;;2.67;;
20336;SDS011;10326;53.660;10.200;2023-05-09T11:01:28;3.22;;;2.60;;
20336;SDS011;10326;53.660;10.200;2023-05-09T11:03:59;3.08;;;2.70;;
20336;SDS011;10326;53.660;10.200;2023-05-09T11:09:24;2.88;;;2.53;;
20336;SDS011;10326;53.660;10.200;2023-05-09T11:12:00;2.85;;;2.55;;
20336;SDS011;10326;53.660;10.200;2023-05-09T11:14:40;4.30;;;2.72;;
20336;SDS011;10326;53.660;10.200;2023-05-09T11:17:10;3.28;;;2.60;;
20336;SDS011;10326;53.660;10.200;2023-05-09T11:19:56;2.75;;;2.40;;
20336;SDS011;10326;53.660;10.200;2023-05-09T11:22:30;2.53;;;2.33;;
20336;SDS011;10326;53.660;10.200;2023-05-09T11:25:08;3.15;;;2.03;;
20336;SDS011;10326;53.660;10.200;2023-05-09T11:27:48;2.70;;;2.50;;
20336;SDS011;10326;53.660;10.200;2023-05-09T11:30:16;2.83;;;2.60;;
20336;SDS011;10326;53.660;10.200;2023-05-09T11:32:45;2.90;;;2.63;;
20336;SDS011;10326;53.660;10.200;2023-05-09T11:35:16;3.15;;;2.35;;
20336;SDS011;10326;53.660;10.200;2023-05-09T11:37:47;2.67;;;2.47;;
20336;SDS011;10326;53.660;10.200;2023-05-09T11:40:18;2.53;;;2.20;;
20336;SDS011;10326;53.660;10.200;2023-05-09T11:42:49;3.10;;;2.80;;
20336;SDS011;10326;53.660;10.200;2023-05-09T11:45:18;2.47;;;2.28;;
20336;SDS011;10326;53.660;10.200;2023-05-09T11:47:46;3.30;;;2.47;;
20336;SDS011;10326;53.660;10.200;2023-05-09T11:50:15;2.78;;;2.42;;
20336;SDS011;10326;53.660;10.200;2023-05-09T11:52:44;3.08;;;2.60;;
20336;SDS011;10326;53.660;10.200;2023-05-09T11:55:13;3.00;;;2.70;;
20336;SDS011;10326;53.660;10.200;2023-05-09T11:57:44;2.42;;;2.30;;
20336;SDS011;10326;53.660;10.200;2023-05-09T12:00:14;3.05;;;2.35;;
20336;SDS011;10326;53.660;10.200;2023-05-09T12:02:42;3.05;;;2.53;;
20336;SDS011;10326;53.660;10.200;2023-05-09T12:05:11;2.92;;;2.40;;
20336;SDS011;10326;53.660;10.200;2023-05-09T12:07:41;2.92;;;2.47;;
20336;SDS011;10326;53.660;10.200;2023-05-09T12:10:09;3.20;;;2.40;;
20336;SDS011;10326;53.660;10.200;2023-05-09T12:12:41;3.35;;;2.60;;
20336;SDS011;10326;53.660;10.200;2023-05-09T12:15:12;4.45;;;2.10;;
20336;SDS011;10326;53.660;10.200;2023-05-09T12:17:39;2.22;;;2.10;;
20336;SDS011;10326;53.660;10.200;2023-05-09T12:20:08;2.47;;;2.28;;
20336;SDS011;10326;53.660;10.200;2023-05-09T12:22:36;3.55;;;2.20;;
20336;SDS011;10326;53.660;10.200;2023-05-09T12:25:04;3.13;;;2.60;;
20336;SDS011;10326;53.660;10.200;2023-05-09T12:27:34;3.08;;;2.45;;
20336;SDS011;10326;53.660;10.200;2023-05-09T12:30:06;3.08;;;2.28;;
20336;SDS011;10326;53.660;10.200;2023-05-09T12:32:35;2.75;;;2.45;;
20336;SDS011;10326;53.660;10.200;2023-05-09T12:35:05;3.25;;;2.33;;
20336;SDS011;10326;53.660;10.200;2023-05-09T12:37:34;4.22;;;2.33;;
20336;SDS011;10326;53.660;10.200;2023-05-09T12:40:02;4.30;;;2.40;;
20336;SDS011;10326;53.660;10.200;2023-05-09T12:42:31;2.60;;;2.30;;
20336;SDS011;10326;53.660;10.200;2023-05-09T12:45:00;2.70;;;2.50;;
20336;SDS011;10326;53.660;10.200;2023-05-09T12:47:30;2.95;;;2.70;;
20336;SDS011;10326;53.660;10.200;2023-05-09T12:49:57;4.65;;;2.63;;
20336;SDS011;10326;53.660;10.200;2023-05-09T12:52:31;2.28;;;2.08;;
20336;SDS011;10326;53.660;10.200;2023-05-09T12:55:03;3.53;;;2.38;;
20336;SDS011;10326;53.660;10.200;2023-05-09T12:57:32;4.75;;;2.30;;
20336;SDS011;10326;53.660;10.200;2023-05-09T13:00:00;2.40;;;2.20;;
20336;SDS011;10326;53.660;10.200;2023-05-09T13:02:34;2.42;;;2.22;;
20336;SDS011;10326;53.660;10.200;2023-05-09T13:05:06;3.33;;;2.20;;
20336;SDS011;10326;53.660;10.200;2023-05-09T13:07:38;5.40;;;2.75;;
20336;SDS011;10326;53.660;10.200;2023-05-09T13:10:09;2.88;;;2.60;;
20336;SDS011;10326;53.660;10.200;2023-05-09T13:12:37;2.20;;;2.00;;
20336;SDS011;10326;53.660;10.200;2023-05-09T13:15:09;2.30;;;2.10;;
20336;SDS011;10326;53.660;10.200;2023-05-09T13:17:38;4.45;;;2.63;;
20336;SDS011;10326;53.660;10.200;2023-05-09T13:20:05;2.50;;;2.30;;
20336;SDS011;10326;53.660;10.200;2023-05-09T13:22:34;2.95;;;2.20;;
20336;SDS011;10326;53.660;10.200;2023-05-09T13:25:01;5.70;;;2.80;;
20336;SDS011;10326;53.660;10.200;2023-05-09T13:27:29;2.90;;;2.30;;
20336;SDS011;10326;53.660;10.200;2023-05-09T13:29:58;3.40;;;2.42;;
20336;SDS011;10326;53.660;10.200;2023-05-09T13:32:26;3.33;;;2.42;;
20336;SDS011;10326;53.660;10.200;2023-05-09T13:34:54;4.70;;;2.20;;
20336;SDS011;10326;53.660;10.200;2023-05-09T13:37:21;2.30;;;2.10;;
20336;SDS011;10326;53.660;10.200;2023-05-09T13:39:48;2.78;;;2.50;;
20336;SDS011;10326;53.660;10.200;2023-05-09T13:42:15;2.38;;;2.17;;
20336;SDS011;10326;53.660;10.200;2023-05-09T13:44:42;3.42;;;2.33;;
20336;SDS011;10326;53.660;10.200;2023-05-09T13:47:10;2.30;;;2.15;;
20336;SDS011;10326;53.660;10.200;2023-05-09T13:49:37;2.35;;;2.15;;
20336;SDS011;10326;53.660;10.200;2023-05-09T13:52:05;2.30;;;2.10;;
20336;SDS011;10326;53.660;10.200;2023-05-09T13:54:34;2.80;;;2.58;;
20336;SDS011;10326;53.660;10.200;2023-05-09T13:57:01;3.20;;;2.50;;
20336;SDS011;10326;53.660;10.200;2023-05-09T13:59:29;3.85;;;2.30;;
20336;SDS011;10326;53.660;10.200;2023-05-09T14:01:56;2.33;;;2.13;;
20336;SDS011;10326;53.660;10.200;2023-05-09T14:04:24;2.53;;;2.33;;
20336;SDS011;10326;53.660;10.200;2023-05-09T14:06:51;2.40;;;2.20;;
20336;SDS011;10326;53.660;10.200;2023-05-09T14:09:23;4.80;;;2.42;;
20336;SDS011;10326;53.660;10.200;2023-05-09T14:11:50;3.40;;;2.15;;
20336;SDS011;10326;53.660;10.200;2023-05-09T14:14:18;2.38;;;2.00;;
20336;SDS011;10326;53.660;10.200;2023-05-09T14:16:48;2.42;;;2.28;;
20336;SDS011;10326;53.660;10.200;2023-05-09T14:19:16;2.33;;;2.13;;
20336;SDS011;10326;53.660;10.200;2023-05-09T14:21:43;2.47;;;2.28;;
20336;SDS011;10326;53.660;10.200;2023-05-09T14:24:13;3.10;;;1.90;;
20336;SDS011;10326;53.660;10.200;2023-05-09T14:26:42;10.02;;;2.97;;
20336;SDS011;10326;53.660;10.200;2023-05-09T14:29:09;5.07;;;2.30;;
20336;SDS011;10326;53.660;10.200;2023-05-09T14:31:37;3.90;;;2.05;;
20336;SDS011;10326;53.660;10.200;2023-05-09T14:34:04;6.10;;;2.40;;
20336;SDS011;10326;53.660;10.200;2023-05-09T14:38:58;4.55;;;2.20;;
20336;SDS011;10326;53.660;10.200;2023-05-09T14:41:25;2.97;;;2.10;;
20336;SDS011;10326;53.660;10.200;2023-05-09T14:43:54;3.13;;;2.40;;
20336;SDS011;10326;53.660;10.200;2023-05-09T14:46:21;2.88;;;1.88;;
20336;SDS011;10326;53.660;10.200;2023-05-09T14:48:48;3.00;;;2.17;;